createdAt,value
2018-12-23T00:01:49.483Z,9.20
2018-12-23T00:04:16.933Z,9.20
2018-12-23T00:06:44.367Z,9.20
2018-12-23T00:09:11.799Z,9.10
2018-12-23T00:11:39.270Z,9.20
2018-12-23T00:14:06.757Z,9.20
2018-12-23T00:16:34.255Z,9.20
2018-12-23T00:19:01.743Z,9.20
2018-12-23T00:21:29.445Z,9.20
2018-12-23T00:23:56.960Z,9.20
2018-12-23T00:26:24.504Z,9.20
2018-12-23T00:28:51.986Z,9.10
2018-12-23T00:31:19.477Z,9.10
2018-12-23T00:33:46.931Z,9.20
2018-12-23T00:36:14.594Z,9.10
2018-12-23T00:38:42.160Z,9.10
2018-12-23T00:41:09.657Z,9.10
2018-12-23T00:43:37.135Z,9.10
2018-12-23T00:46:04.690Z,9.10
2018-12-23T00:48:32.173Z,9.10
2018-12-23T00:50:59.558Z,9.00
2018-12-23T00:53:27.042Z,9.10
2018-12-23T00:55:54.700Z,9.10
2018-12-23T00:58:22.235Z,9.10
2018-12-23T01:00:49.694Z,9.10
2018-12-23T01:03:17.173Z,9.10
2018-12-23T01:05:44.751Z,9.10
2018-12-23T01:08:12.231Z,9.10
2018-12-23T01:10:39.946Z,9.10
2018-12-23T01:13:07.443Z,9.10
2018-12-23T01:15:34.900Z,9.10
2018-12-23T01:18:02.341Z,9.10
2018-12-23T01:20:29.830Z,9.00
2018-12-23T01:22:57.290Z,9.00
2018-12-23T01:25:24.855Z,9.00
2018-12-23T01:27:52.343Z,9.00
2018-12-23T01:30:19.935Z,9.00
2018-12-23T01:32:47.424Z,9.00
2018-12-23T01:35:15.032Z,9.00
2018-12-23T01:37:42.540Z,9.00
2018-12-23T01:40:10.052Z,9.00
2018-12-23T01:42:37.622Z,9.00
2018-12-23T01:45:05.245Z,9.00
2018-12-23T01:47:32.768Z,9.00
2018-12-23T01:50:00.838Z,9.00
2018-12-23T01:52:28.367Z,9.00
2018-12-23T01:54:55.850Z,9.10
2018-12-23T01:57:23.309Z,9.10
2018-12-23T01:59:50.747Z,9.10
2018-12-23T02:02:18.212Z,9.10
2018-12-23T02:04:45.662Z,9.00
2018-12-23T02:07:14.305Z,9.10
2018-12-23T02:09:41.807Z,9.10
2018-12-23T02:12:09.343Z,9.00
2018-12-23T02:14:36.860Z,9.00
2018-12-23T02:17:04.345Z,9.00
2018-12-23T02:19:31.804Z,9.00
2018-12-23T02:21:59.364Z,9.00
2018-12-23T02:24:26.862Z,9.00
2018-12-23T02:26:54.407Z,8.90
2018-12-23T02:29:21.832Z,9.00
2018-12-23T02:31:49.299Z,9.00
2018-12-23T02:34:16.796Z,8.90
2018-12-23T02:36:44.256Z,9.00
2018-12-23T02:39:11.742Z,8.90
2018-12-23T02:41:39.209Z,8.90
2018-12-23T02:44:06.694Z,8.90
2018-12-23T02:46:34.164Z,8.90
2018-12-23T02:49:01.647Z,8.90
2018-12-23T02:51:29.341Z,8.90
2018-12-23T02:53:56.777Z,8.90
2018-12-23T02:56:24.161Z,8.90
2018-12-23T02:58:51.610Z,8.90
2018-12-23T03:01:19.073Z,9.00
2018-12-23T03:03:46.596Z,9.00
2018-12-23T03:06:14.077Z,9.00
2018-12-23T03:08:41.596Z,9.00
2018-12-23T03:11:09.256Z,9.00
2018-12-23T03:13:36.698Z,9.00
2018-12-23T03:16:04.172Z,9.00
2018-12-23T03:18:31.752Z,9.00
2018-12-23T03:20:59.341Z,9.00
2018-12-23T03:23:26.845Z,9.00
2018-12-23T03:25:54.371Z,9.00
2018-12-23T03:28:21.902Z,8.90
2018-12-23T03:30:49.373Z,8.90
2018-12-23T03:33:16.963Z,8.90
2018-12-23T03:35:44.585Z,8.90
2018-12-23T03:38:12.216Z,8.80
2018-12-23T03:40:39.851Z,8.80
2018-12-23T03:43:07.439Z,8.80
2018-12-23T03:45:34.944Z,8.80
2018-12-23T03:48:02.534Z,8.80
2018-12-23T03:50:30.031Z,8.70
2018-12-23T03:52:57.473Z,8.80
2018-12-23T03:55:24.991Z,8.80
2018-12-23T03:57:52.351Z,8.80
2018-12-23T04:00:19.941Z,8.80
2018-12-23T04:02:47.408Z,8.80
2018-12-23T04:05:14.811Z,8.80
2018-12-23T04:07:42.355Z,8.80
2018-12-23T04:10:09.769Z,8.80
2018-12-23T04:12:37.253Z,8.80
2018-12-23T04:15:05.139Z,8.80
2018-12-23T04:17:32.934Z,8.80
2018-12-23T04:20:00.322Z,8.80
2018-12-23T04:22:27.777Z,8.80
2018-12-23T04:24:55.243Z,8.80
2018-12-23T04:27:22.713Z,8.80
2018-12-23T04:29:50.174Z,8.80
2018-12-23T04:32:17.683Z,8.80
2018-12-23T04:34:45.166Z,8.80
2018-12-23T04:37:12.811Z,8.80
2018-12-23T04:39:40.374Z,8.80
2018-12-23T04:42:07.802Z,8.80
2018-12-23T04:44:35.343Z,8.70
2018-12-23T04:47:02.790Z,8.70
2018-12-23T04:49:31.322Z,8.80
2018-12-23T04:52:05.849Z,8.70
2018-12-23T04:54:33.377Z,8.70
2018-12-23T04:57:00.901Z,8.70
2018-12-23T04:59:28.453Z,8.70
2018-12-23T05:01:56.014Z,8.70
2018-12-23T05:04:23.536Z,8.70
2018-12-23T05:06:50.944Z,8.80
2018-12-23T05:09:18.472Z,8.80
2018-12-23T05:11:45.938Z,8.70
2018-12-23T05:14:13.403Z,8.70
2018-12-23T05:16:40.904Z,8.80
2018-12-23T05:19:08.482Z,8.70
2018-12-23T05:21:35.981Z,8.70
2018-12-23T05:24:03.389Z,8.70
2018-12-23T05:26:30.856Z,8.70
2018-12-23T05:28:58.399Z,8.70
2018-12-23T05:31:25.821Z,8.70
2018-12-23T05:33:53.365Z,8.70
2018-12-23T05:36:20.881Z,8.80
2018-12-23T05:38:48.316Z,8.80
2018-12-23T05:41:15.785Z,8.70
2018-12-23T05:43:43.283Z,8.70
2018-12-23T05:46:10.780Z,8.70
2018-12-23T05:48:38.169Z,8.70
2018-12-23T05:51:05.647Z,8.70
2018-12-23T05:53:33.121Z,8.70
2018-12-23T05:55:59.629Z,8.70
2018-12-23T05:58:28.247Z,8.70
2018-12-23T06:00:55.849Z,8.70
2018-12-23T06:03:23.413Z,8.70
2018-12-23T06:05:50.947Z,8.80
2018-12-23T06:08:18.475Z,8.80
2018-12-23T06:10:46.006Z,8.80
2018-12-23T06:13:13.432Z,8.80
2018-12-23T06:15:40.938Z,8.80
2018-12-23T06:18:08.407Z,8.80
2018-12-23T06:20:35.910Z,8.80
2018-12-23T06:23:03.574Z,8.80
2018-12-23T06:25:31.307Z,8.80
2018-12-23T06:27:58.789Z,8.80
2018-12-23T06:30:26.263Z,8.80
2018-12-23T06:32:53.770Z,8.80
2018-12-23T06:35:21.222Z,8.80
2018-12-23T06:37:48.671Z,8.80
2018-12-23T06:40:16.695Z,8.80
2018-12-23T06:42:44.161Z,8.80
2018-12-23T06:45:11.728Z,8.80
2018-12-23T06:47:39.294Z,8.80
2018-12-23T06:50:06.951Z,8.80
2018-12-23T06:52:34.560Z,8.80
2018-12-23T06:55:02.099Z,8.80
2018-12-23T06:57:29.537Z,8.80
2018-12-23T06:59:57.080Z,8.70
2018-12-23T07:02:24.640Z,8.80
2018-12-23T07:04:52.209Z,8.70
2018-12-23T07:07:19.647Z,8.80
2018-12-23T07:09:47.196Z,8.80
2018-12-23T07:12:14.697Z,8.70
2018-12-23T07:14:42.218Z,8.70
2018-12-23T07:17:09.888Z,8.70
2018-12-23T07:19:37.394Z,8.70
2018-12-23T07:22:04.972Z,8.70
2018-12-23T07:24:32.385Z,8.70
2018-12-23T07:26:59.973Z,8.70
2018-12-23T07:29:27.718Z,8.70
2018-12-23T07:31:55.290Z,8.80
2018-12-23T07:34:22.768Z,8.80
2018-12-23T07:36:50.245Z,8.80
2018-12-23T07:39:17.657Z,8.90
2018-12-23T07:41:45.294Z,8.90
2018-12-23T07:44:12.770Z,8.90
2018-12-23T07:46:40.258Z,8.90
2018-12-23T07:49:07.675Z,8.90
2018-12-23T07:51:35.238Z,8.90
2018-12-23T07:54:02.653Z,8.90
2018-12-23T07:56:30.067Z,8.90
2018-12-23T07:58:57.439Z,8.90
2018-12-23T08:01:25.040Z,9.00
2018-12-23T08:03:52.728Z,8.90
2018-12-23T08:06:20.156Z,9.00
2018-12-23T08:08:47.790Z,8.90
2018-12-23T08:11:15.382Z,9.00
2018-12-23T08:13:43.261Z,9.00
2018-12-23T08:16:10.701Z,9.00
2018-12-23T08:18:38.343Z,9.00
2018-12-23T08:21:05.849Z,9.00
2018-12-23T08:23:33.388Z,9.00
2018-12-23T08:26:00.915Z,9.00
2018-12-23T08:28:28.563Z,9.00
2018-12-23T08:30:56.108Z,9.00
2018-12-23T08:33:23.670Z,9.00
2018-12-23T08:35:51.150Z,9.00
2018-12-23T08:38:25.517Z,9.00
2018-12-23T08:40:52.915Z,9.00
2018-12-23T08:43:20.382Z,9.00
2018-12-23T08:45:47.830Z,9.00
2018-12-23T08:48:15.395Z,9.00
2018-12-23T08:50:42.937Z,9.00
2018-12-23T08:53:10.393Z,9.00
2018-12-23T08:55:37.886Z,9.00
2018-12-23T08:58:05.408Z,9.00
2018-12-23T09:00:32.927Z,9.00
2018-12-23T09:03:00.400Z,9.00
2018-12-23T09:05:27.899Z,9.00
2018-12-23T09:07:55.383Z,9.00
2018-12-23T09:10:22.860Z,9.00
2018-12-23T09:12:50.491Z,9.00
2018-12-23T09:15:18.962Z,9.00
2018-12-23T09:17:46.441Z,9.00
2018-12-23T09:20:13.895Z,9.00
2018-12-23T09:22:41.458Z,9.10
2018-12-23T09:25:08.924Z,9.10
2018-12-23T09:27:36.462Z,9.10
2018-12-23T09:30:05.161Z,9.10
2018-12-23T09:32:32.798Z,9.10
2018-12-23T09:35:00.308Z,9.10
2018-12-23T09:37:30.798Z,9.20
2018-12-23T09:40:05.129Z,9.20
2018-12-23T09:42:32.773Z,9.20
2018-12-23T09:45:07.254Z,9.20
2018-12-23T09:47:34.793Z,9.30
2018-12-23T09:50:02.300Z,9.30
2018-12-23T09:52:29.743Z,9.40
2018-12-23T09:54:57.362Z,9.40
2018-12-23T09:57:24.878Z,9.40
2018-12-23T09:59:52.406Z,9.50
2018-12-23T10:02:20.027Z,9.50
2018-12-23T10:04:47.518Z,9.50
2018-12-23T10:07:14.993Z,9.50
2018-12-23T10:09:42.536Z,9.60
2018-12-23T10:12:10.042Z,9.60
2018-12-23T10:14:37.463Z,9.60
2018-12-23T10:17:04.935Z,9.70
2018-12-23T10:19:32.517Z,9.70
2018-12-23T10:22:00.026Z,9.70
2018-12-23T10:24:27.538Z,9.70
2018-12-23T10:26:55.020Z,9.70
2018-12-23T10:30:22.336Z,9.70
2018-12-23T10:33:03.022Z,9.70
2018-12-23T10:35:43.095Z,9.80
2018-12-23T10:38:23.280Z,9.80
2018-12-23T10:41:03.872Z,9.90
2018-12-23T10:43:44.346Z,9.90
2018-12-23T10:46:25.358Z,9.90
2018-12-23T10:49:05.423Z,10.00
2018-12-23T10:51:46.050Z,10.10
2018-12-23T10:54:26.861Z,10.10
2018-12-23T10:57:07.315Z,10.10
2018-12-23T10:59:47.608Z,10.10
2018-12-23T11:02:28.658Z,10.10
2018-12-23T11:05:09.023Z,10.00
2018-12-23T11:07:49.325Z,10.00
2018-12-23T11:10:29.696Z,10.00
2018-12-23T11:13:10.290Z,10.00
2018-12-23T11:15:52.044Z,10.00
2018-12-23T11:18:32.512Z,10.00
2018-12-23T11:21:13.272Z,10.00
2018-12-23T11:23:41.539Z,10.00
2018-12-23T11:26:21.912Z,10.00
2018-12-23T11:29:02.278Z,9.90
2018-12-23T11:31:42.647Z,10.00
2018-12-23T11:34:21.398Z,9.90
2018-12-23T11:37:08.760Z,9.90
2018-12-23T11:39:49.541Z,9.90
2018-12-23T11:42:30.136Z,9.90
2018-12-23T11:45:11.506Z,9.90
2018-12-23T11:47:51.518Z,9.90
2018-12-23T11:50:32.214Z,9.80
2018-12-23T11:53:12.616Z,9.80
2018-12-23T11:55:53.037Z,9.80
2018-12-23T11:58:33.461Z,9.80
2018-12-23T12:01:14.156Z,9.80
2018-12-23T12:03:54.921Z,9.80
2018-12-23T12:06:35.362Z,9.80
2018-12-23T12:09:16.182Z,9.80
2018-12-23T12:11:56.744Z,9.70
2018-12-23T12:14:37.599Z,9.70
2018-12-23T12:17:17.637Z,9.70
2018-12-23T12:19:58.199Z,9.70
2018-12-23T12:22:38.460Z,9.70
2018-12-23T12:25:19.057Z,9.70
2018-12-23T12:27:59.382Z,9.70
2018-12-23T12:30:39.568Z,9.70
2018-12-23T12:33:20.015Z,9.70
2018-12-23T12:36:00.894Z,9.70
2018-12-23T12:38:40.850Z,9.70
2018-12-23T12:41:21.386Z,9.70
2018-12-23T12:44:01.601Z,9.70
2018-12-23T12:46:42.253Z,9.70
2018-12-23T12:49:22.353Z,9.60
2018-12-23T12:52:02.825Z,9.60
2018-12-23T12:54:43.187Z,9.60
2018-12-23T12:57:24.071Z,9.60
2018-12-23T13:00:04.533Z,9.70
2018-12-23T13:02:45.119Z,9.70
2018-12-23T13:05:26.019Z,9.70
2018-12-23T13:08:06.309Z,9.60
2018-12-23T13:10:47.036Z,9.60
2018-12-23T13:13:27.134Z,9.70
2018-12-23T13:16:07.725Z,9.60
2018-12-23T13:18:48.425Z,9.60
2018-12-23T13:21:28.733Z,9.60
2018-12-23T13:24:09.360Z,9.70
2018-12-23T13:26:49.678Z,9.60
2018-12-23T13:29:30.019Z,9.70
2018-12-23T13:32:10.536Z,9.70
2018-12-23T13:34:50.959Z,9.70
2018-12-23T13:37:31.386Z,9.80
2018-12-23T13:40:12.165Z,9.80
2018-12-23T13:42:52.301Z,9.90
2018-12-23T13:45:32.878Z,9.90
2018-12-23T13:48:13.498Z,9.90
2018-12-23T13:50:53.520Z,9.90
2018-12-23T13:53:34.036Z,9.90
2018-12-23T13:56:14.554Z,9.90
2018-12-23T13:58:55.029Z,10.00
2018-12-23T14:01:35.415Z,10.00
2018-12-23T14:04:15.862Z,10.10
2018-12-23T14:06:56.704Z,10.10
2018-12-23T14:09:37.084Z,10.10
2018-12-23T14:12:17.572Z,10.20
2018-12-23T14:14:58.000Z,10.20
2018-12-23T14:17:38.051Z,10.20
2018-12-23T14:20:18.562Z,10.20
2018-12-23T14:22:59.129Z,10.20
2018-12-23T14:25:39.896Z,10.30
2018-12-23T14:28:20.431Z,10.30
2018-12-23T14:31:00.920Z,10.30
2018-12-23T14:33:41.660Z,10.30
2018-12-23T14:36:22.415Z,10.30
2018-12-23T14:39:04.160Z,10.40
2018-12-23T14:41:44.944Z,10.40
2018-12-23T14:44:25.532Z,10.40
2018-12-23T14:47:05.942Z,10.40
2018-12-23T14:49:46.370Z,10.40
2018-12-23T14:52:27.132Z,10.40
2018-12-23T14:55:07.560Z,10.40
2018-12-23T14:57:47.838Z,10.40
2018-12-23T15:00:28.219Z,10.40
2018-12-23T15:03:09.158Z,10.40
2018-12-23T15:05:49.428Z,10.40
2018-12-23T15:08:29.583Z,10.40
2018-12-23T15:11:10.326Z,10.50
2018-12-23T15:13:50.496Z,10.50
2018-12-23T15:16:30.935Z,10.50
2018-12-23T15:19:11.366Z,10.50
2018-12-23T15:21:51.719Z,10.60
2018-12-23T15:24:32.364Z,10.60
2018-12-23T15:27:13.060Z,10.60
2018-12-23T15:29:53.684Z,10.60
2018-12-23T15:32:34.089Z,10.60
2018-12-23T15:35:14.956Z,10.70
2018-12-23T15:37:55.368Z,10.60
2018-12-23T15:40:35.730Z,10.70
2018-12-23T15:43:16.316Z,10.70
2018-12-23T15:45:56.924Z,10.70
2018-12-23T15:48:37.416Z,10.70
2018-12-23T15:51:17.876Z,10.80
2018-12-23T15:53:58.149Z,10.80
2018-12-23T15:56:38.922Z,10.80
2018-12-23T15:59:19.546Z,10.80
2018-12-23T16:02:00.063Z,10.80
2018-12-23T16:04:40.824Z,10.80
2018-12-23T16:07:21.217Z,10.80
2018-12-23T16:10:02.077Z,10.80
2018-12-23T16:12:42.201Z,10.80
2018-12-23T16:15:22.684Z,10.90
2018-12-23T16:18:03.072Z,10.90
2018-12-23T16:20:43.551Z,11.00
2018-12-23T16:23:23.684Z,10.90
2018-12-23T16:26:04.165Z,10.90
2018-12-23T16:28:45.960Z,10.90
2018-12-23T16:31:26.498Z,11.00
2018-12-23T16:34:06.881Z,11.00
2018-12-23T16:36:47.585Z,11.10
2018-12-23T16:39:28.044Z,11.10
2018-12-23T16:42:08.285Z,11.10
2018-12-23T16:44:48.833Z,11.10
2018-12-23T16:47:29.776Z,11.20
2018-12-23T16:50:10.073Z,11.20
2018-12-23T16:52:50.421Z,11.20
2018-12-23T16:55:31.145Z,11.20
2018-12-23T16:58:11.606Z,11.20
2018-12-23T17:00:51.803Z,11.20
2018-12-23T17:03:32.319Z,11.20
2018-12-23T17:06:13.165Z,11.30
2018-12-23T17:08:53.384Z,11.30
2018-12-23T17:11:33.752Z,11.30
2018-12-23T17:14:14.345Z,11.30
2018-12-23T17:16:54.571Z,11.30
2018-12-23T17:19:35.121Z,11.30
2018-12-23T17:22:15.687Z,11.40
2018-12-23T17:24:56.207Z,11.40
2018-12-23T17:27:36.582Z,11.40
2018-12-23T17:30:17.206Z,11.40
2018-12-23T17:32:57.603Z,11.40
2018-12-23T17:35:38.551Z,11.50
2018-12-23T17:38:19.003Z,11.50
2018-12-23T17:40:59.758Z,11.50
2018-12-23T17:43:40.329Z,11.50
2018-12-23T17:46:20.712Z,11.50
2018-12-23T17:49:01.324Z,11.60
2018-12-23T17:51:41.728Z,11.60
2018-12-23T17:54:22.297Z,11.60
2018-12-23T17:57:02.668Z,11.60
2018-12-23T17:59:43.356Z,11.60
2018-12-23T18:02:23.747Z,11.60
2018-12-23T18:05:04.039Z,11.60
2018-12-23T18:07:44.464Z,11.60
2018-12-23T18:10:25.090Z,11.70
2018-12-23T18:13:06.000Z,11.70
2018-12-23T18:15:46.388Z,11.70
2018-12-23T18:18:27.010Z,11.70
2018-12-23T18:21:07.538Z,11.70
2018-12-23T18:23:47.997Z,11.80
2018-12-23T18:26:28.562Z,11.80
2018-12-23T18:29:09.098Z,11.80
2018-12-23T18:31:49.582Z,11.80
2018-12-23T18:34:29.935Z,11.80
2018-12-23T18:37:10.285Z,11.80
2018-12-23T18:39:50.757Z,11.90
2018-12-23T18:42:31.203Z,11.90
2018-12-23T18:45:11.864Z,11.80
2018-12-23T18:47:52.179Z,11.90
2018-12-23T18:50:32.564Z,11.90
2018-12-23T18:53:13.227Z,11.90
2018-12-23T18:55:54.028Z,11.90
2018-12-23T18:58:34.538Z,11.90
2018-12-23T19:01:14.919Z,11.90
2018-12-23T19:03:55.892Z,11.90
2018-12-23T19:06:36.026Z,12.00
2018-12-23T19:09:17.077Z,12.00
2018-12-23T19:11:57.310Z,12.00
2018-12-23T19:14:38.091Z,12.00
2018-12-23T19:17:18.395Z,12.00
2018-12-23T19:19:58.989Z,12.00
2018-12-23T19:22:39.168Z,12.00
2018-12-23T19:25:19.623Z,12.00
2018-12-23T19:28:00.301Z,12.10
2018-12-23T19:30:40.859Z,12.10
2018-12-23T19:33:21.557Z,12.10
2018-12-23T19:36:01.969Z,12.10
2018-12-23T19:38:42.394Z,12.10
2018-12-23T19:41:22.737Z,12.10
2018-12-23T19:47:24.183Z,12.20
2018-12-23T19:50:04.731Z,12.10
2018-12-23T19:52:45.062Z,12.10
2018-12-23T19:55:25.838Z,12.10
2018-12-23T19:58:05.620Z,12.10
2018-12-23T20:00:45.989Z,12.10
2018-12-23T20:03:26.446Z,12.10
2018-12-23T20:06:07.208Z,12.10
2018-12-23T20:08:47.396Z,12.10
2018-12-23T20:11:28.352Z,12.10
2018-12-23T20:14:08.257Z,12.10
2018-12-23T20:16:48.874Z,12.10
2018-12-23T20:19:29.532Z,12.10
2018-12-23T20:22:10.264Z,12.20
2018-12-23T20:24:50.973Z,12.20
2018-12-23T20:27:31.027Z,12.20
2018-12-23T20:30:11.832Z,12.20
2018-12-23T20:32:54.856Z,12.20
2018-12-23T20:35:35.665Z,12.20
2018-12-23T20:38:16.144Z,12.20
2018-12-23T20:40:56.327Z,12.30
2018-12-23T20:43:36.193Z,12.30
2018-12-23T20:46:17.128Z,12.40
2018-12-23T20:48:57.932Z,12.40
2018-12-23T20:51:38.964Z,12.40
2018-12-23T20:54:19.193Z,12.40
2018-12-23T20:56:59.757Z,12.40
2018-12-23T20:59:40.480Z,12.40
2018-12-23T21:02:21.464Z,12.50
2018-12-23T21:05:01.652Z,12.40
2018-12-23T21:07:42.144Z,12.40
2018-12-23T21:10:22.615Z,12.50
2018-12-23T21:13:03.227Z,12.50
2018-12-23T21:15:43.617Z,12.50
2018-12-23T21:18:24.212Z,12.50
2018-12-23T21:21:04.481Z,12.50
2018-12-23T21:23:46.987Z,12.60
2018-12-23T21:26:27.577Z,12.60
2018-12-23T21:29:08.258Z,12.60
2018-12-23T21:31:49.196Z,12.60
2018-12-23T21:34:29.769Z,12.60
2018-12-23T21:37:10.165Z,12.60
2018-12-23T21:39:51.490Z,12.70
2018-12-23T21:42:32.556Z,12.60
2018-12-23T21:45:13.405Z,12.60
2018-12-23T21:47:53.834Z,12.70
2018-12-23T21:50:34.667Z,12.70
2018-12-23T21:53:14.628Z,12.70
2018-12-23T21:55:55.174Z,12.70
2018-12-23T21:58:35.536Z,12.70
2018-12-23T22:01:16.284Z,12.70
2018-12-23T22:03:56.385Z,12.70
2018-12-23T22:06:36.599Z,12.70
2018-12-23T22:09:17.761Z,12.70
2018-12-23T22:11:57.963Z,12.70
2018-12-23T22:14:38.482Z,12.70
2018-12-23T22:17:18.979Z,12.70
2018-12-23T22:19:59.557Z,12.80
2018-12-23T22:22:40.036Z,12.80
2018-12-23T22:25:20.725Z,12.80
2018-12-23T22:28:01.203Z,12.80
2018-12-23T22:30:41.694Z,12.90
2018-12-23T22:33:22.312Z,12.90
2018-12-23T22:36:02.529Z,12.90
2018-12-23T22:38:43.383Z,12.90
2018-12-23T22:41:23.843Z,12.90
2018-12-23T22:44:04.283Z,12.90
2018-12-23T22:46:44.415Z,12.90
2018-12-23T22:49:25.121Z,12.90
2018-12-23T22:52:05.656Z,12.90
2018-12-23T22:54:46.169Z,12.90
2018-12-23T22:57:26.795Z,12.90
2018-12-23T23:00:06.858Z,12.90
2018-12-23T23:02:48.934Z,12.90
2018-12-23T23:05:29.015Z,12.90
2018-12-23T23:08:09.351Z,12.90
2018-12-23T23:10:49.910Z,12.90
2018-12-23T23:13:30.806Z,12.90
2018-12-23T23:16:10.272Z,12.90
2018-12-23T23:18:57.722Z,12.90
2018-12-23T23:21:38.345Z,12.90
2018-12-23T23:24:18.949Z,12.90
2018-12-23T23:26:59.696Z,12.90
2018-12-23T23:29:40.450Z,12.90
2018-12-23T23:32:20.529Z,12.90
2018-12-23T23:35:01.040Z,12.80
2018-12-23T23:37:41.738Z,12.80
2018-12-23T23:40:21.966Z,12.80
2018-12-23T23:43:02.440Z,12.80
2018-12-23T23:45:43.846Z,12.80
2018-12-23T23:48:24.380Z,12.80
2018-12-23T23:51:04.697Z,12.90
2018-12-23T23:53:45.093Z,12.90
2018-12-23T23:56:25.634Z,12.90
2018-12-23T23:59:06.325Z,12.90
